createdAt,value
2022-11-20T00:00:41.021Z,7.53
2022-11-20T00:03:07.776Z,8.55
2022-11-20T00:05:34.563Z,7.97
2022-11-20T00:08:01.419Z,7.93
2022-11-20T00:10:28.153Z,6.67
2022-11-20T00:12:54.866Z,9.18
2022-11-20T00:15:21.618Z,7.90
2022-11-20T00:17:49.754Z,9.30
2022-11-20T00:20:16.635Z,10.87
2022-11-20T00:22:43.351Z,9.87
2022-11-20T00:25:10.082Z,8.60
2022-11-20T00:27:36.813Z,8.47
2022-11-20T00:30:03.952Z,11.27
2022-11-20T00:32:31.248Z,10.80
2022-11-20T00:34:59.356Z,9.57
2022-11-20T00:37:26.200Z,10.17
2022-11-20T00:39:52.907Z,9.70
2022-11-20T00:42:19.619Z,10.60
2022-11-20T00:44:46.325Z,9.23
2022-11-20T00:47:13.051Z,8.88
2022-11-20T00:49:39.789Z,9.95
2022-11-20T00:52:07.821Z,10.30
2022-11-20T00:54:34.542Z,8.02
2022-11-20T00:57:01.243Z,11.00
2022-11-20T00:59:28.526Z,9.70
2022-11-20T01:01:55.216Z,10.40
2022-11-20T01:04:21.970Z,8.50
2022-11-20T01:06:48.670Z,8.47
2022-11-20T01:09:16.710Z,10.23
2022-11-20T01:11:44.869Z,10.77
2022-11-20T01:14:14.164Z,10.70
2022-11-20T01:16:43.011Z,8.53
2022-11-20T01:19:17.495Z,8.00
2022-11-20T01:21:46.581Z,10.48
2022-11-20T01:24:16.437Z,8.60
2022-11-20T01:26:44.732Z,10.93
2022-11-20T01:29:15.868Z,10.23
2022-11-20T01:31:43.174Z,10.60
2022-11-20T01:34:13.061Z,9.13
2022-11-20T01:36:40.812Z,9.23
2022-11-20T01:39:11.468Z,11.37
2022-11-20T01:41:40.324Z,10.15
2022-11-20T01:44:07.051Z,10.20
2022-11-20T01:46:36.241Z,10.10
2022-11-20T01:49:08.998Z,10.17
2022-11-20T01:51:40.470Z,9.60
2022-11-20T01:54:12.765Z,10.10
2022-11-20T01:56:43.709Z,8.97
2022-11-20T01:59:13.012Z,9.23
2022-11-20T02:01:39.884Z,9.77
2022-11-20T02:04:09.232Z,10.48
2022-11-20T02:06:40.299Z,9.97
2022-11-20T02:09:07.037Z,10.63
2022-11-20T02:11:33.748Z,11.13
2022-11-20T02:14:01.944Z,9.90
2022-11-20T02:16:31.217Z,11.18
2022-11-20T02:19:01.263Z,10.73
2022-11-20T02:21:35.809Z,10.85
2022-11-20T02:24:10.589Z,11.15
2022-11-20T02:26:43.476Z,9.15
2022-11-20T02:29:10.535Z,9.45
2022-11-20T02:31:43.193Z,10.57
2022-11-20T02:34:10.002Z,10.40
2022-11-20T02:36:39.664Z,12.07
2022-11-20T02:39:08.345Z,10.57
2022-11-20T02:41:37.183Z,11.03
2022-11-20T02:44:04.865Z,9.20
2022-11-20T02:46:31.780Z,10.70
2022-11-20T02:48:58.577Z,7.70
2022-11-20T02:51:25.428Z,9.73
2022-11-20T02:53:52.140Z,9.60
2022-11-20T02:56:20.311Z,9.73
2022-11-20T02:58:47.174Z,9.87
2022-11-20T03:01:14.477Z,12.10
2022-11-20T03:03:41.264Z,10.60
2022-11-20T03:06:08.180Z,9.80
2022-11-20T03:08:35.186Z,9.57
2022-11-20T03:11:04.728Z,9.90
2022-11-20T03:13:32.919Z,9.60
2022-11-20T03:15:59.655Z,8.90
2022-11-20T03:18:29.310Z,11.37
2022-11-20T03:20:58.713Z,10.90
2022-11-20T03:23:25.529Z,8.73
2022-11-20T03:25:52.547Z,8.70
2022-11-20T03:28:19.233Z,9.17
2022-11-20T03:30:47.303Z,9.90
2022-11-20T03:33:14.002Z,9.50
2022-11-20T03:35:40.752Z,9.63
2022-11-20T03:38:07.475Z,8.23
2022-11-20T03:40:35.384Z,10.47
2022-11-20T03:43:02.080Z,12.87
2022-11-20T03:45:28.787Z,9.55
2022-11-20T03:47:56.819Z,9.93
2022-11-20T03:50:23.546Z,9.47
2022-11-20T03:52:50.310Z,10.82
2022-11-20T03:55:17.075Z,9.50
2022-11-20T03:57:43.755Z,10.87
2022-11-20T04:00:11.731Z,8.20
2022-11-20T04:02:38.442Z,9.53
2022-11-20T04:05:07.317Z,9.83
2022-11-20T04:07:35.155Z,8.13
2022-11-20T04:10:01.906Z,8.97
2022-11-20T04:12:32.199Z,8.60
2022-11-20T04:14:58.898Z,8.93
2022-11-20T04:17:25.672Z,8.97
2022-11-20T04:19:52.377Z,8.27
2022-11-20T04:22:20.551Z,7.37
2022-11-20T04:24:47.228Z,7.73
2022-11-20T04:27:13.947Z,8.25
2022-11-20T04:29:40.662Z,6.90
2022-11-20T04:32:07.382Z,7.40
2022-11-20T04:34:34.294Z,8.48
2022-11-20T04:37:01.312Z,8.20
2022-11-20T04:39:29.414Z,9.70
2022-11-20T04:41:56.189Z,9.60
2022-11-20T04:44:22.889Z,8.70
2022-11-20T04:46:49.589Z,8.57
2022-11-20T04:49:16.434Z,8.73
2022-11-20T04:51:43.152Z,9.97
2022-11-20T04:54:11.960Z,9.70
2022-11-20T04:56:40.014Z,7.47
2022-11-20T04:59:06.721Z,9.63
2022-11-20T05:01:33.746Z,7.90
2022-11-20T05:04:00.500Z,8.23
2022-11-20T05:06:27.203Z,6.63
2022-11-20T05:08:53.930Z,9.15
2022-11-20T05:11:21.921Z,6.32
2022-11-20T05:13:50.894Z,8.33
2022-11-20T05:16:19.659Z,8.13
2022-11-20T05:18:46.966Z,7.77
2022-11-20T05:21:14.635Z,6.67
2022-11-20T05:23:42.158Z,8.43
2022-11-20T05:26:13.328Z,8.13
2022-11-20T05:28:40.028Z,7.63
2022-11-20T05:31:10.164Z,8.70
2022-11-20T05:33:37.341Z,8.13
2022-11-20T05:36:05.105Z,7.43
2022-11-20T05:38:32.435Z,8.10
2022-11-20T05:41:04.930Z,6.85
2022-11-20T05:43:33.437Z,7.90
2022-11-20T05:46:00.143Z,7.90
2022-11-20T05:48:28.318Z,7.40
2022-11-20T05:50:55.099Z,6.97
2022-11-20T05:53:21.805Z,7.10
2022-11-20T05:55:57.336Z,6.75
2022-11-20T05:58:24.012Z,7.32
2022-11-20T06:00:50.731Z,6.63
2022-11-20T06:03:17.429Z,6.90
2022-11-20T06:05:45.517Z,6.43
2022-11-20T06:08:12.275Z,8.70
2022-11-20T06:10:38.981Z,7.00
2022-11-20T06:13:05.740Z,6.63
2022-11-20T06:15:32.446Z,5.60
2022-11-20T06:17:59.141Z,7.87
2022-11-20T06:20:25.873Z,6.93
2022-11-20T06:22:53.906Z,5.20
2022-11-20T06:25:20.664Z,8.70
2022-11-20T06:27:47.348Z,7.28
2022-11-20T06:30:14.399Z,7.43
2022-11-20T06:32:41.140Z,6.70
2022-11-20T06:35:08.831Z,6.30
2022-11-20T06:37:35.520Z,5.80
2022-11-20T06:40:04.270Z,6.20
2022-11-20T06:42:30.958Z,6.40
2022-11-20T06:44:57.661Z,6.25
2022-11-20T06:47:24.383Z,6.30
2022-11-20T06:49:51.084Z,6.25
2022-11-20T06:52:17.756Z,6.22
2022-11-20T06:54:44.590Z,5.25
2022-11-20T06:57:12.649Z,5.45
2022-11-20T06:59:39.360Z,5.97
2022-11-20T07:02:06.101Z,8.38
2022-11-20T07:04:32.831Z,6.50
2022-11-20T07:06:59.589Z,7.53
2022-11-20T07:09:26.701Z,6.38
2022-11-20T07:11:53.672Z,7.47
2022-11-20T07:14:21.720Z,6.18
2022-11-20T07:16:48.430Z,7.30
2022-11-20T07:19:15.150Z,5.82
2022-11-20T07:21:41.886Z,4.90
2022-11-20T07:24:08.680Z,4.88
2022-11-20T07:26:35.369Z,5.55
2022-11-20T07:29:02.086Z,6.25
2022-11-20T07:31:30.134Z,6.60
2022-11-20T07:33:56.818Z,7.03
2022-11-20T07:36:23.520Z,7.60
2022-11-20T07:38:50.450Z,8.02
2022-11-20T07:41:17.187Z,6.13
2022-11-20T07:43:43.973Z,6.30
2022-11-20T07:46:10.745Z,5.63
2022-11-20T07:48:38.875Z,5.05
2022-11-20T07:51:05.631Z,6.47
2022-11-20T07:53:32.346Z,7.90
2022-11-20T07:56:00.782Z,5.15
2022-11-20T07:58:29.510Z,6.13
2022-11-20T08:00:56.268Z,7.13
2022-11-20T08:03:25.214Z,7.05
2022-11-20T08:05:54.079Z,6.63
2022-11-20T08:08:20.880Z,6.63
2022-11-20T08:10:47.670Z,6.80
2022-11-20T08:13:14.403Z,6.33
2022-11-20T08:15:41.526Z,7.38
2022-11-20T08:20:58.608Z,6.70
2022-11-20T08:23:25.442Z,4.73
2022-11-20T08:25:52.281Z,6.50
2022-11-20T08:28:21.693Z,6.57
2022-11-20T08:30:49.399Z,5.50
2022-11-20T08:33:16.210Z,7.30
2022-11-20T08:35:42.926Z,7.70
2022-11-20T08:38:11.191Z,7.50
2022-11-20T08:40:37.986Z,6.70
2022-11-20T08:43:04.843Z,6.60
2022-11-20T08:45:34.527Z,6.10
2022-11-20T08:48:03.321Z,6.23
2022-11-20T08:50:30.941Z,6.17
2022-11-20T08:53:03.458Z,5.63
2022-11-20T08:55:31.669Z,6.37
2022-11-20T08:57:58.464Z,5.80
2022-11-20T09:00:25.316Z,6.83
2022-11-20T09:02:52.110Z,6.00
2022-11-20T09:05:18.872Z,5.57
2022-11-20T09:07:45.677Z,5.40
2022-11-20T09:10:28.159Z,5.30
2022-11-20T09:12:56.838Z,5.17
2022-11-20T09:15:24.015Z,6.20
2022-11-20T09:17:54.087Z,5.60
2022-11-20T09:20:21.401Z,5.60
2022-11-20T09:22:48.203Z,7.30
2022-11-20T09:25:15.088Z,6.07
2022-11-20T09:27:41.860Z,5.77
2022-11-20T09:30:11.234Z,5.93
2022-11-20T09:32:39.778Z,6.10
2022-11-20T09:35:07.128Z,6.50
2022-11-20T09:37:33.899Z,6.17
2022-11-20T09:40:00.698Z,5.50
2022-11-20T09:42:38.580Z,5.35
2022-11-20T09:45:22.634Z,7.50
2022-11-20T09:48:04.786Z,5.90
2022-11-20T09:50:35.998Z,5.77
2022-11-20T09:53:17.084Z,5.47
2022-11-20T09:55:43.905Z,5.60
2022-11-20T09:58:21.750Z,4.80
2022-11-20T10:00:50.786Z,5.37
2022-11-20T10:03:22.025Z,5.50
2022-11-20T10:05:52.823Z,5.37
2022-11-20T10:08:23.416Z,6.27
2022-11-20T10:10:54.932Z,6.67
2022-11-20T10:13:32.981Z,5.70
2022-11-20T10:16:16.539Z,6.63
2022-11-20T10:18:59.620Z,5.20
2022-11-20T10:21:34.610Z,5.27
2022-11-20T10:24:16.501Z,6.17
2022-11-20T10:26:49.794Z,5.50
2022-11-20T10:29:19.181Z,5.10
2022-11-20T10:31:51.735Z,5.63
2022-11-20T10:34:23.331Z,5.53
2022-11-20T10:36:55.888Z,5.07
2022-11-20T10:39:29.781Z,6.17
2022-11-20T10:41:57.665Z,5.00
2022-11-20T10:44:28.613Z,6.00
2022-11-20T10:46:56.989Z,5.40
2022-11-20T10:49:24.033Z,5.90
2022-11-20T10:52:00.365Z,3.87
2022-11-20T10:54:36.213Z,3.83
2022-11-20T10:57:11.184Z,5.00
2022-11-20T11:00:01.650Z,4.90
2022-11-20T11:02:39.708Z,5.13
2022-11-20T11:05:17.338Z,5.50
2022-11-20T11:07:46.080Z,6.77
2022-11-20T11:10:17.411Z,7.40
2022-11-20T11:12:46.472Z,5.87
2022-11-20T11:15:25.071Z,4.37
2022-11-20T11:17:53.435Z,5.33
2022-11-20T11:20:22.251Z,3.73
2022-11-20T11:22:51.526Z,3.50
2022-11-20T11:25:27.789Z,5.10
2022-11-20T11:27:55.967Z,6.00
2022-11-20T11:30:24.031Z,5.10
2022-11-20T11:32:50.810Z,5.00
2022-11-20T11:35:25.190Z,5.37
2022-11-20T11:37:54.085Z,4.63
2022-11-20T11:40:26.327Z,4.20
2022-11-20T11:42:57.491Z,4.30
2022-11-20T11:45:25.452Z,4.60
2022-11-20T11:47:53.528Z,4.30
2022-11-20T11:50:24.194Z,3.30
2022-11-20T11:52:59.260Z,4.60
2022-11-20T11:55:34.060Z,3.90
2022-11-20T11:58:15.241Z,5.17
2022-11-20T12:00:50.563Z,4.53
2022-11-20T12:03:21.540Z,4.30
2022-11-20T12:06:01.725Z,4.17
2022-11-20T12:08:33.698Z,5.60
2022-11-20T12:11:07.126Z,4.43
2022-11-20T12:13:45.715Z,5.00
2022-11-20T12:16:14.660Z,5.00
2022-11-20T12:18:42.563Z,5.00
2022-11-20T12:21:20.771Z,5.23
2022-11-20T12:24:00.340Z,3.97
2022-11-20T12:26:39.476Z,5.30
2022-11-20T12:29:14.804Z,4.60
2022-11-20T12:31:57.245Z,4.83
2022-11-20T12:34:44.681Z,4.83
2022-11-20T12:37:21.870Z,4.30
2022-11-20T12:39:50.436Z,5.10
2022-11-20T12:42:41.443Z,4.60
2022-11-20T12:45:26.048Z,5.87
2022-11-20T12:48:15.744Z,4.97
2022-11-20T12:51:13.820Z,4.37
2022-11-20T12:53:46.119Z,5.60
2022-11-20T12:56:25.035Z,5.70
2022-11-20T12:59:04.555Z,4.63
2022-11-20T13:01:39.788Z,4.40
2022-11-20T13:04:17.675Z,4.30
2022-11-20T13:06:45.445Z,4.93
2022-11-20T13:09:16.251Z,4.93
2022-11-20T13:11:48.964Z,4.73
2022-11-20T13:14:27.526Z,4.70
2022-11-20T13:17:03.356Z,5.27
2022-11-20T13:19:33.277Z,4.07
2022-11-20T13:22:00.103Z,4.87
2022-11-20T13:24:30.522Z,4.43
2022-11-20T13:27:19.581Z,3.67
2022-11-20T13:29:47.633Z,4.20
2022-11-20T13:32:17.316Z,4.83
2022-11-20T13:34:53.479Z,4.60
2022-11-20T13:37:28.353Z,4.83
2022-11-20T13:40:06.776Z,4.80
2022-11-20T13:42:38.687Z,5.10
2022-11-20T13:45:11.990Z,4.90
2022-11-20T13:47:48.026Z,4.90
2022-11-20T13:50:15.724Z,5.27
2022-11-20T13:52:54.014Z,5.07
2022-11-20T13:55:29.789Z,5.30
2022-11-20T13:58:17.966Z,5.60
2022-11-20T14:00:48.219Z,6.23
2022-11-20T14:03:28.461Z,4.37
2022-11-20T14:06:13.465Z,4.53
2022-11-20T14:08:43.946Z,4.77
2022-11-20T14:11:17.917Z,4.20
2022-11-20T14:13:56.824Z,4.97
2022-11-20T14:16:24.536Z,5.70
2022-11-20T14:18:51.554Z,5.97
2022-11-20T14:21:26.654Z,5.80
2022-11-20T14:23:54.968Z,4.73
2022-11-20T14:26:23.165Z,3.80
2022-11-20T14:28:51.375Z,4.23
2022-11-20T14:31:24.691Z,4.40
2022-11-20T14:33:52.587Z,4.00
2022-11-20T14:36:21.969Z,4.50
2022-11-20T14:38:48.987Z,4.07
2022-11-20T14:41:21.081Z,4.80
2022-11-20T14:43:54.242Z,6.03
2022-11-20T14:46:21.685Z,4.97
2022-11-20T14:48:50.165Z,5.10
2022-11-20T14:51:32.692Z,4.40
2022-11-20T14:54:10.061Z,5.67
2022-11-20T14:56:36.927Z,4.70
2022-11-20T14:59:05.266Z,4.60
2022-11-20T15:01:33.787Z,6.00
2022-11-20T15:04:02.742Z,4.77
2022-11-20T15:06:29.813Z,5.87
2022-11-20T15:08:56.714Z,6.10
2022-11-20T15:11:30.038Z,5.97
2022-11-20T15:13:57.193Z,5.57
2022-11-20T15:16:25.498Z,5.63
2022-11-20T15:18:52.504Z,5.70
2022-11-20T15:21:20.757Z,6.77
2022-11-20T15:23:47.618Z,4.63
2022-11-20T15:26:20.223Z,5.37
2022-11-20T15:28:48.301Z,5.40
2022-11-20T15:31:16.718Z,5.80
2022-11-20T15:33:52.145Z,4.87
2022-11-20T15:36:19.231Z,5.47
2022-11-20T15:38:46.113Z,5.80
2022-11-20T15:41:13.008Z,5.30
2022-11-20T15:43:39.768Z,5.43
2022-11-20T15:46:10.378Z,6.20
2022-11-20T15:48:46.243Z,5.97
2022-11-20T15:51:25.416Z,4.90
2022-11-20T15:53:52.192Z,5.77
2022-11-20T15:56:18.970Z,6.07
2022-11-20T15:58:45.710Z,7.20
2022-11-20T16:01:13.510Z,6.80
2022-11-20T16:03:40.319Z,6.83
2022-11-20T16:06:07.269Z,6.73
2022-11-20T16:08:35.661Z,4.43
2022-11-20T16:11:02.609Z,6.67
2022-11-20T16:13:31.439Z,5.67
2022-11-20T16:16:00.609Z,4.80
2022-11-20T16:18:27.396Z,5.87
2022-11-20T16:20:55.482Z,6.40
2022-11-20T16:23:22.317Z,5.70
2022-11-20T16:25:51.298Z,6.00
2022-11-20T16:28:19.363Z,5.80
2022-11-20T16:30:46.827Z,5.30
2022-11-20T16:33:15.716Z,6.13
2022-11-20T16:35:42.546Z,6.73
2022-11-20T16:38:09.465Z,7.07
2022-11-20T16:40:36.452Z,8.47
2022-11-20T16:43:10.348Z,6.53
2022-11-20T16:45:41.963Z,6.67
2022-11-20T16:48:13.019Z,7.20
2022-11-20T16:50:46.779Z,7.83
2022-11-20T16:53:13.485Z,6.27
2022-11-20T16:55:40.178Z,8.50
2022-11-20T16:58:08.271Z,6.80
2022-11-20T17:00:36.668Z,7.63
2022-11-20T17:03:03.736Z,6.00
2022-11-20T17:05:30.453Z,5.90
2022-11-20T17:07:57.207Z,6.27
2022-11-20T17:10:24.216Z,6.87
2022-11-20T17:12:51.104Z,7.93
2022-11-20T17:15:19.184Z,5.77
2022-11-20T17:17:45.971Z,6.53
2022-11-20T17:20:12.809Z,6.63
2022-11-20T17:22:39.506Z,7.37
2022-11-20T17:25:06.637Z,5.33
2022-11-20T17:27:33.385Z,7.00
2022-11-20T17:30:00.152Z,7.57
2022-11-20T17:32:28.640Z,5.97
2022-11-20T17:34:55.381Z,6.00
2022-11-20T17:37:22.106Z,5.47
2022-11-20T17:39:48.798Z,7.37
2022-11-20T17:42:16.015Z,5.27
2022-11-20T17:44:42.784Z,4.90
2022-11-20T17:47:09.548Z,7.23
2022-11-20T17:49:37.622Z,5.97
2022-11-20T17:52:04.749Z,7.10
2022-11-20T17:54:31.477Z,7.90
2022-11-20T17:56:58.215Z,5.90
2022-11-20T17:59:24.932Z,7.10
2022-11-20T18:01:51.692Z,6.33
2022-11-20T18:04:18.469Z,6.10
2022-11-20T18:06:46.574Z,7.17
2022-11-20T18:09:13.420Z,7.00
2022-11-20T18:11:41.933Z,6.73
2022-11-20T18:14:14.377Z,5.53
2022-11-20T18:16:43.315Z,6.70
2022-11-20T18:19:11.214Z,6.13
2022-11-20T18:21:38.147Z,8.20
2022-11-20T18:24:07.267Z,9.20
2022-11-20T18:26:34.004Z,17.10
2022-11-20T18:31:47.518Z,11.50
2022-11-20T18:34:14.245Z,10.10
2022-11-20T18:36:41.591Z,9.57
2022-11-20T18:39:11.459Z,9.23
2022-11-20T18:41:38.814Z,8.10
2022-11-20T18:44:07.175Z,8.30
2022-11-20T18:46:33.908Z,12.17
2022-11-20T18:49:00.622Z,7.53
2022-11-20T18:51:27.359Z,9.93
2022-11-20T18:53:54.425Z,8.67
2022-11-20T18:56:22.481Z,6.27
2022-11-20T18:58:49.219Z,10.40
2022-11-20T19:01:16.050Z,7.70
2022-11-20T19:03:42.900Z,7.47
2022-11-20T19:06:12.793Z,9.43
2022-11-20T19:08:39.672Z,6.47
2022-11-20T19:11:07.389Z,6.20
2022-11-20T19:13:36.056Z,5.67
2022-11-20T19:16:03.378Z,7.30
2022-11-20T19:18:30.118Z,7.80
2022-11-20T19:20:56.911Z,8.77
2022-11-20T19:23:23.959Z,8.80
2022-11-20T19:25:50.727Z,6.60
2022-11-20T19:28:17.474Z,8.20
2022-11-20T19:30:45.552Z,6.90
2022-11-20T19:33:12.372Z,5.80
2022-11-20T19:35:39.149Z,6.25
2022-11-20T19:38:05.917Z,6.80
2022-11-20T19:40:32.678Z,7.33
2022-11-20T19:42:59.391Z,8.07
2022-11-20T19:45:26.132Z,6.57
2022-11-20T19:48:07.650Z,8.57
2022-11-20T19:50:35.333Z,8.40
2022-11-20T19:53:02.146Z,7.20
2022-11-20T19:55:28.944Z,7.83
2022-11-20T19:57:56.481Z,6.13
2022-11-20T20:00:29.687Z,5.83
2022-11-20T20:03:01.088Z,8.53
2022-11-20T20:05:27.876Z,8.77
2022-11-20T20:07:54.571Z,6.90
2022-11-20T20:10:21.261Z,7.60
2022-11-20T20:12:48.024Z,7.47
2022-11-20T20:15:15.121Z,7.85
2022-11-20T20:17:41.882Z,8.13
2022-11-20T20:20:11.263Z,7.20
2022-11-20T20:22:37.976Z,8.47
2022-11-20T20:25:05.871Z,8.70
2022-11-20T20:27:32.613Z,8.63
2022-11-20T20:29:59.343Z,8.70
2022-11-20T20:32:26.289Z,10.00
2022-11-20T20:34:52.988Z,9.95
2022-11-20T20:37:21.048Z,10.00
2022-11-20T20:39:47.925Z,12.05
2022-11-20T20:42:14.737Z,9.40
2022-11-20T20:44:41.515Z,8.30
2022-11-20T20:47:08.556Z,10.17
2022-11-20T20:49:35.237Z,8.33
2022-11-20T20:52:01.939Z,8.40
2022-11-20T20:54:34.196Z,9.60
2022-11-20T20:57:01.320Z,8.63
2022-11-20T20:59:28.095Z,6.70
2022-11-20T21:01:54.907Z,9.17
2022-11-20T21:04:21.736Z,8.27
2022-11-20T21:06:48.537Z,6.88
2022-11-20T21:09:15.275Z,8.40
2022-11-20T21:11:43.349Z,7.97
2022-11-20T21:14:10.092Z,6.90
2022-11-20T21:16:36.826Z,8.00
2022-11-20T21:19:03.614Z,8.10
2022-11-20T21:21:30.358Z,9.33
2022-11-20T21:23:57.101Z,7.20
2022-11-20T21:26:23.877Z,8.47
2022-11-20T21:28:52.016Z,8.20
2022-11-20T21:31:20.517Z,8.15
2022-11-20T21:33:48.645Z,9.67
2022-11-20T21:36:17.060Z,7.78
2022-11-20T21:38:44.185Z,8.93
2022-11-20T21:41:12.675Z,7.10
2022-11-20T21:43:39.757Z,6.97
2022-11-20T21:46:09.301Z,9.07
2022-11-20T21:48:39.087Z,8.27
2022-11-20T21:51:08.175Z,10.50
2022-11-20T21:53:35.385Z,8.53
2022-11-20T21:56:02.193Z,9.20
2022-11-20T21:58:28.950Z,7.77
2022-11-20T22:00:55.902Z,8.63
2022-11-20T22:03:24.056Z,10.20
2022-11-20T22:05:54.699Z,8.20
2022-11-20T22:08:21.490Z,9.03
2022-11-20T22:10:54.292Z,9.00
2022-11-20T22:13:21.185Z,9.43
2022-11-20T22:16:00.309Z,8.00
2022-11-20T22:18:29.104Z,8.10
2022-11-20T22:20:56.029Z,8.20
2022-11-20T22:23:22.731Z,7.33
2022-11-20T22:25:49.469Z,7.30
2022-11-20T22:28:16.309Z,7.77
2022-11-20T22:30:43.098Z,6.67
2022-11-20T22:33:13.528Z,7.50
2022-11-20T22:35:42.129Z,7.10
2022-11-20T22:38:08.874Z,7.60
2022-11-20T22:40:35.620Z,8.27
2022-11-20T22:43:02.449Z,6.83
2022-11-20T22:45:29.209Z,9.33
2022-11-20T22:47:55.943Z,7.53
2022-11-20T22:50:22.679Z,8.47
2022-11-20T22:52:50.905Z,8.30
2022-11-20T22:55:17.683Z,7.50
2022-11-20T22:57:44.423Z,8.40
2022-11-20T23:00:12.617Z,7.60
2022-11-20T23:02:43.815Z,8.80
2022-11-20T23:05:10.543Z,9.00
2022-11-20T23:07:40.939Z,10.60
2022-11-20T23:10:10.212Z,7.60
2022-11-20T23:12:37.018Z,8.07
2022-11-20T23:15:04.252Z,8.20
2022-11-20T23:17:30.957Z,10.57
2022-11-20T23:19:57.665Z,10.33
2022-11-20T23:22:24.340Z,9.13
2022-11-20T23:24:51.021Z,10.80
2022-11-20T23:27:20.001Z,12.87
2022-11-20T23:29:46.768Z,9.70
2022-11-20T23:32:13.459Z,11.07
2022-11-20T23:34:40.174Z,9.23
2022-11-20T23:37:06.856Z,11.57
2022-11-20T23:39:33.544Z,9.73
2022-11-20T23:42:00.241Z,10.43
2022-11-20T23:44:28.860Z,9.40
2022-11-20T23:46:55.866Z,10.30
2022-11-20T23:49:22.584Z,9.00
2022-11-20T23:51:49.266Z,12.97
2022-11-20T23:54:16.037Z,11.20
2022-11-20T23:56:42.704Z,11.10
2022-11-20T23:59:09.388Z,11.97
